createdAt,value
2018-06-13T00:02:13.669Z,3.23
2018-06-13T00:04:42.186Z,2.20
2018-06-13T00:07:10.748Z,2.47
2018-06-13T00:09:39.176Z,2.70
2018-06-13T00:12:08.078Z,2.83
2018-06-13T00:14:36.504Z,3.13
2018-06-13T00:17:05.074Z,2.93
2018-06-13T00:19:33.263Z,3.10
2018-06-13T00:22:01.711Z,3.90
2018-06-13T00:24:30.285Z,5.23
2018-06-13T00:26:58.835Z,5.57
2018-06-13T00:29:27.261Z,4.97
2018-06-13T00:31:55.673Z,5.03
2018-06-13T00:34:24.085Z,4.10
2018-06-13T00:36:53.208Z,4.60
2018-06-13T00:39:21.777Z,4.10
2018-06-13T00:41:50.257Z,3.13
2018-06-13T00:44:18.717Z,3.57
2018-06-13T00:46:47.305Z,2.57
2018-06-13T00:49:15.885Z,3.33
2018-06-13T00:51:44.304Z,3.47
2018-06-13T00:54:12.828Z,4.03
2018-06-13T00:56:41.280Z,3.90
2018-06-13T00:59:09.732Z,4.67
2018-06-13T01:01:38.128Z,4.73
2018-06-13T01:04:06.588Z,4.30
2018-06-13T01:06:35.469Z,4.30
2018-06-13T01:09:05.755Z,5.17
2018-06-13T01:11:34.769Z,5.20
2018-06-13T01:14:03.341Z,5.30
2018-06-13T01:16:31.931Z,4.40
2018-06-13T01:19:00.408Z,4.70
2018-06-13T01:21:28.907Z,4.30
2018-06-13T01:23:57.379Z,4.60
2018-06-13T01:26:25.799Z,3.97
2018-06-13T01:28:55.089Z,4.23
2018-06-13T01:31:23.480Z,4.43
2018-06-13T01:33:51.899Z,5.73
2018-06-13T01:36:28.477Z,5.63
2018-06-13T01:38:57.258Z,4.07
2018-06-13T01:41:25.840Z,4.00
2018-06-13T01:43:54.371Z,3.77
2018-06-13T01:46:22.782Z,4.47
2018-06-13T01:48:51.164Z,3.93
2018-06-13T01:51:19.684Z,3.80
2018-06-13T01:53:48.164Z,3.87
2018-06-13T01:56:16.559Z,3.37
2018-06-13T01:58:44.982Z,2.93
2018-06-13T02:01:13.488Z,2.80
2018-06-13T02:03:41.909Z,2.70
2018-06-13T02:06:10.021Z,3.13
2018-06-13T02:08:38.449Z,3.40
2018-06-13T02:11:06.938Z,2.97
2018-06-13T02:13:35.483Z,3.10
2018-06-13T02:16:10.557Z,2.70
2018-06-13T02:18:38.940Z,3.10
2018-06-13T02:21:07.356Z,2.93
2018-06-13T02:23:35.460Z,3.00
2018-06-13T02:26:03.946Z,3.27
2018-06-13T02:28:32.366Z,4.10
2018-06-13T02:31:00.795Z,4.43
2018-06-13T02:33:28.860Z,5.47
2018-06-13T02:35:57.481Z,5.77
2018-06-13T02:38:25.877Z,4.20
2018-06-13T02:40:54.283Z,4.80
2018-06-13T02:43:22.901Z,4.43
2018-06-13T02:45:51.424Z,4.90
2018-06-13T02:48:19.840Z,3.93
2018-06-13T02:50:48.223Z,4.43
2018-06-13T02:53:16.633Z,3.80
2018-06-13T02:55:45.062Z,3.97
2018-06-13T02:58:13.582Z,3.63
2018-06-13T03:00:41.998Z,4.03
2018-06-13T03:03:10.478Z,3.70
2018-06-13T03:05:39.308Z,3.57
2018-06-13T03:08:07.829Z,3.40
2018-06-13T03:10:36.384Z,3.17
2018-06-13T03:13:04.790Z,3.50
2018-06-13T03:15:33.181Z,4.17
2018-06-13T03:18:01.756Z,4.27
2018-06-13T03:20:30.326Z,4.40
2018-06-13T03:22:58.751Z,4.50
2018-06-13T03:25:27.195Z,5.90
2018-06-13T03:27:55.632Z,4.73
2018-06-13T03:30:24.208Z,4.47
2018-06-13T03:32:52.786Z,3.97
2018-06-13T03:35:21.186Z,4.17
2018-06-13T03:37:49.550Z,4.10
2018-06-13T03:40:18.019Z,4.80
2018-06-13T03:42:46.427Z,3.67
2018-06-13T03:45:14.893Z,4.50
2018-06-13T03:47:43.459Z,4.50
2018-06-13T03:50:11.917Z,4.77
2018-06-13T03:52:40.380Z,5.27
2018-06-13T03:55:08.838Z,3.80
2018-06-13T03:57:37.329Z,4.37
2018-06-13T04:00:05.921Z,3.50
2018-06-13T04:02:34.321Z,2.80
2018-06-13T04:05:02.724Z,3.13
2018-06-13T04:07:30.841Z,2.63
2018-06-13T04:09:59.251Z,2.80
2018-06-13T04:12:27.648Z,2.67
2018-06-13T04:14:56.256Z,2.40
2018-06-13T04:17:24.708Z,2.17
2018-06-13T04:19:53.161Z,1.50
2018-06-13T04:22:21.635Z,2.97
2018-06-13T04:24:50.103Z,3.70
2018-06-13T04:27:18.563Z,3.37
2018-06-13T04:29:47.039Z,3.27
2018-06-13T04:32:15.543Z,3.50
2018-06-13T04:34:44.073Z,3.93
2018-06-13T04:37:12.561Z,4.30
2018-06-13T04:39:40.970Z,4.60
2018-06-13T04:42:09.483Z,4.27
2018-06-13T04:44:37.947Z,4.20
2018-06-13T04:47:06.480Z,3.97
2018-06-13T04:49:34.593Z,4.37
2018-06-13T04:52:03.064Z,4.80
2018-06-13T04:54:31.465Z,4.43
2018-06-13T04:56:59.893Z,5.30
2018-06-13T04:59:28.031Z,4.20
2018-06-13T05:01:56.449Z,5.10
2018-06-13T05:04:24.886Z,5.30
2018-06-13T05:06:53.300Z,4.20
2018-06-13T05:09:21.854Z,4.80
2018-06-13T05:11:50.332Z,4.57
2018-06-13T05:14:18.886Z,5.30
2018-06-13T05:16:47.234Z,4.40
2018-06-13T05:19:15.730Z,4.40
2018-06-13T05:21:44.279Z,4.50
2018-06-13T05:24:12.764Z,5.73
2018-06-13T05:26:41.208Z,4.20
2018-06-13T05:29:09.702Z,4.50
2018-06-13T05:31:38.129Z,5.40
2018-06-13T05:34:06.707Z,4.50
2018-06-13T05:36:35.192Z,5.23
2018-06-13T05:39:04.607Z,5.00
2018-06-13T05:41:32.898Z,4.70
2018-06-13T05:44:01.323Z,4.80
2018-06-13T05:46:29.706Z,5.53
2018-06-13T05:48:57.857Z,6.40
2018-06-13T05:51:26.281Z,4.90
2018-06-13T05:53:54.601Z,5.17
2018-06-13T05:56:23.128Z,5.40
2018-06-13T05:58:51.593Z,5.47
2018-06-13T06:01:20.157Z,5.80
2018-06-13T06:03:48.633Z,5.40
2018-06-13T06:06:17.197Z,6.23
2018-06-13T06:08:45.583Z,5.03
2018-06-13T06:11:14.091Z,5.63
2018-06-13T06:13:42.520Z,4.80
2018-06-13T06:16:11.044Z,6.07
2018-06-13T06:18:39.496Z,5.70
2018-06-13T06:21:07.912Z,5.17
2018-06-13T06:23:36.389Z,4.90
2018-06-13T06:26:04.797Z,4.90
2018-06-13T06:28:33.331Z,5.63
2018-06-13T06:31:01.715Z,5.50
2018-06-13T06:33:30.158Z,5.60
2018-06-13T06:35:58.819Z,5.33
2018-06-13T06:38:27.541Z,6.27
2018-06-13T06:40:56.048Z,6.53
2018-06-13T06:43:24.847Z,6.03
2018-06-13T06:45:53.276Z,5.60
2018-06-13T06:48:21.832Z,5.30
2018-06-13T06:50:50.283Z,5.70
2018-06-13T06:53:18.764Z,5.90
2018-06-13T06:55:47.172Z,7.27
2018-06-13T06:58:15.628Z,6.00
2018-06-13T07:00:44.138Z,6.47
2018-06-13T07:03:12.805Z,6.40
2018-06-13T07:05:41.238Z,6.90
2018-06-13T07:08:09.655Z,5.47
2018-06-13T07:10:38.123Z,7.10
2018-06-13T07:13:06.827Z,7.30
2018-06-13T07:15:35.285Z,5.07
2018-06-13T07:18:03.874Z,7.97
2018-06-13T07:20:32.361Z,5.73
2018-06-13T07:23:00.774Z,6.10
2018-06-13T07:25:29.211Z,6.70
2018-06-13T07:27:57.666Z,5.60
2018-06-13T07:30:26.078Z,6.20
2018-06-13T07:32:54.486Z,6.23
2018-06-13T07:35:24.003Z,5.40
2018-06-13T07:37:52.379Z,6.10
2018-06-13T07:40:20.785Z,5.33
2018-06-13T07:42:49.237Z,5.90
2018-06-13T07:45:17.676Z,6.20
2018-06-13T07:47:46.250Z,6.57
2018-06-13T07:50:14.699Z,5.97
2018-06-13T07:52:43.358Z,6.53
2018-06-13T07:55:11.818Z,6.00
2018-06-13T07:57:40.238Z,5.33
2018-06-13T08:00:08.991Z,5.30
2018-06-13T08:02:37.512Z,4.63
2018-06-13T08:05:06.082Z,4.67
2018-06-13T08:07:34.513Z,4.50
2018-06-13T08:10:02.654Z,5.17
2018-06-13T08:12:31.065Z,4.00
2018-06-13T08:14:59.562Z,4.30
2018-06-13T08:17:28.155Z,4.47
2018-06-13T08:19:56.657Z,4.57
2018-06-13T08:22:25.105Z,6.33
2018-06-13T08:24:55.083Z,7.07
2018-06-13T08:27:23.617Z,6.73
2018-06-13T08:29:52.126Z,6.67
2018-06-13T08:32:20.697Z,5.80
2018-06-13T08:34:49.229Z,7.13
2018-06-13T08:37:17.847Z,5.40
2018-06-13T08:39:46.369Z,4.83
2018-06-13T08:42:14.942Z,5.27
2018-06-13T08:44:43.493Z,4.50
2018-06-13T08:47:12.052Z,4.10
2018-06-13T08:49:40.704Z,3.30
2018-06-13T08:52:09.290Z,3.53
2018-06-13T08:54:37.778Z,4.13
2018-06-13T08:57:06.280Z,3.43
2018-06-13T08:59:34.840Z,3.40
2018-06-13T09:02:03.417Z,3.50
2018-06-13T09:04:32.512Z,5.70
2018-06-13T09:07:01.071Z,3.30
2018-06-13T09:09:29.663Z,3.70
2018-06-13T09:11:58.179Z,3.60
2018-06-13T09:14:26.624Z,4.00
2018-06-13T09:16:55.729Z,4.27
2018-06-13T09:19:24.287Z,3.83
2018-06-13T09:21:52.805Z,3.90
2018-06-13T09:24:21.232Z,4.80
2018-06-13T09:26:49.785Z,3.77
2018-06-13T09:29:18.227Z,4.07
2018-06-13T09:31:46.663Z,4.10
2018-06-13T09:34:15.137Z,4.20
2018-06-13T09:36:43.590Z,4.50
2018-06-13T09:39:12.150Z,5.00
2018-06-13T09:42:02.513Z,4.67
2018-06-13T09:44:31.300Z,5.27
2018-06-13T09:47:06.900Z,5.60
2018-06-13T09:49:28.310Z,5.00
2018-06-13T09:51:56.754Z,5.70
2018-06-13T09:54:25.183Z,6.00
2018-06-13T09:56:53.571Z,6.10
2018-06-13T09:59:22.545Z,6.60
2018-06-13T10:01:56.363Z,7.80
2018-06-13T10:04:24.854Z,8.10
2018-06-13T10:06:53.326Z,6.87
2018-06-13T10:09:21.864Z,11.03
2018-06-13T10:11:50.410Z,9.40
2018-06-13T10:14:18.830Z,9.83
2018-06-13T10:16:46.970Z,11.70
2018-06-13T10:19:15.534Z,11.33
2018-06-13T10:21:43.957Z,10.60
2018-06-13T10:24:12.395Z,11.20
2018-06-13T10:26:40.869Z,9.90
2018-06-13T10:29:09.406Z,12.30
2018-06-13T10:31:37.980Z,12.10
2018-06-13T10:34:06.561Z,12.27
2018-06-13T10:36:35.208Z,11.90
2018-06-13T10:39:04.722Z,12.80
2018-06-13T10:41:33.124Z,12.90
2018-06-13T10:44:01.585Z,12.07
2018-06-13T10:46:30.085Z,14.87
2018-06-13T10:48:58.523Z,13.33
2018-06-13T10:51:26.989Z,14.70
2018-06-13T10:53:55.417Z,14.70
2018-06-13T10:56:23.911Z,14.07
2018-06-13T10:58:52.396Z,14.67
2018-06-13T11:01:20.933Z,13.50
2018-06-13T11:03:49.366Z,14.10
2018-06-13T11:06:17.801Z,12.90
2018-06-13T11:08:46.337Z,13.67
2018-06-13T11:11:14.830Z,13.60
2018-06-13T11:13:43.333Z,13.13
2018-06-13T11:16:11.945Z,11.10
2018-06-13T11:18:40.372Z,13.50
2018-06-13T11:21:09.029Z,14.40
2018-06-13T11:23:37.539Z,12.90
2018-06-13T11:26:06.143Z,13.27
2018-06-13T11:28:34.637Z,12.90
2018-06-13T11:31:03.124Z,12.47
2018-06-13T11:33:31.706Z,13.50
2018-06-13T11:36:00.189Z,15.43
2018-06-13T11:38:28.681Z,14.00
2018-06-13T11:40:57.327Z,13.40
2018-06-13T11:43:25.858Z,13.23
2018-06-13T11:45:54.788Z,13.40
2018-06-13T11:48:23.299Z,12.13
2018-06-13T11:50:51.748Z,12.07
2018-06-13T11:53:20.313Z,13.47
2018-06-13T11:55:48.861Z,12.00
2018-06-13T11:58:17.385Z,13.60
2018-06-13T12:00:45.883Z,15.37
2018-06-13T12:03:14.348Z,17.87
2018-06-13T12:05:42.840Z,17.10
2018-06-13T12:08:11.289Z,16.97
2018-06-13T12:10:39.731Z,18.57
2018-06-13T12:13:08.186Z,18.13
2018-06-13T12:15:36.689Z,17.90
2018-06-13T12:18:05.212Z,16.07
2018-06-13T12:20:33.714Z,14.00
2018-06-13T12:23:02.201Z,14.17
2018-06-13T12:25:30.723Z,12.83
2018-06-13T12:27:59.193Z,13.57
2018-06-13T12:30:27.666Z,13.20
2018-06-13T12:32:56.166Z,14.30
2018-06-13T12:35:24.652Z,18.10
2018-06-13T12:37:53.155Z,18.37
2018-06-13T12:40:21.739Z,17.57
2018-06-13T12:42:50.224Z,19.57
2018-06-13T12:45:18.755Z,19.87
2018-06-13T12:47:47.275Z,17.33
2018-06-13T12:50:15.893Z,18.57
2018-06-13T12:52:44.433Z,20.30
2018-06-13T12:55:12.953Z,21.50
2018-06-13T12:57:41.448Z,21.90
2018-06-13T13:00:09.993Z,20.73
2018-06-13T13:02:38.518Z,22.10
2018-06-13T13:05:07.034Z,21.07
2018-06-13T13:07:35.697Z,19.63
2018-06-13T13:10:04.737Z,18.20
2018-06-13T13:12:33.340Z,16.90
2018-06-13T13:15:01.816Z,17.60
2018-06-13T13:17:31.316Z,14.27
2018-06-13T13:19:59.814Z,13.60
2018-06-13T13:22:28.962Z,11.27
2018-06-13T13:24:57.839Z,10.50
2018-06-13T13:27:26.555Z,9.60
2018-06-13T13:29:55.135Z,9.73
2018-06-13T13:32:23.673Z,9.90
2018-06-13T13:34:53.024Z,10.70
2018-06-13T13:37:22.065Z,10.93
2018-06-13T13:39:50.703Z,9.80
2018-06-13T13:42:19.305Z,12.33
2018-06-13T13:44:48.405Z,13.63
2018-06-13T13:47:16.871Z,13.10
2018-06-13T13:49:45.315Z,13.00
2018-06-13T13:52:13.833Z,12.97
2018-06-13T13:54:42.344Z,12.97
2018-06-13T13:57:11.620Z,13.20
2018-06-13T13:59:40.113Z,12.63
2018-06-13T14:02:08.614Z,13.13
2018-06-13T14:04:37.220Z,13.70
2018-06-13T14:07:06.895Z,13.00
2018-06-13T14:09:35.509Z,14.00
2018-06-13T14:12:04.071Z,13.97
2018-06-13T14:14:32.709Z,14.30
2018-06-13T14:17:01.202Z,16.90
2018-06-13T14:19:29.704Z,16.80
2018-06-13T14:24:20.595Z,17.43
2018-06-13T14:26:49.118Z,20.40
2018-06-13T14:29:18.154Z,18.07
2018-06-13T14:31:46.735Z,19.50
2018-06-13T14:34:15.427Z,18.40
2018-06-13T14:36:44.055Z,19.77
2018-06-13T14:39:12.799Z,18.80
2018-06-13T14:41:42.245Z,19.57
2018-06-13T14:44:10.716Z,19.03
2018-06-13T14:46:38.856Z,20.10
2018-06-13T14:49:07.405Z,20.40
2018-06-13T14:51:36.100Z,20.23
2018-06-13T14:54:04.688Z,19.80
2018-06-13T14:56:33.648Z,20.63
2018-06-13T14:59:02.453Z,21.27
2018-06-13T15:01:31.112Z,25.50
2018-06-13T15:03:59.688Z,25.97
2018-06-13T15:06:28.335Z,25.17
2018-06-13T15:08:57.177Z,24.20
2018-06-13T15:11:25.901Z,26.50
2018-06-13T15:13:54.519Z,25.33
2018-06-13T15:16:23.090Z,24.67
2018-06-13T15:18:51.674Z,25.03
2018-06-13T15:21:21.059Z,26.07
2018-06-13T15:23:49.573Z,26.53
2018-06-13T15:26:18.386Z,23.53
2018-06-13T15:28:46.889Z,25.93
2018-06-13T15:31:15.750Z,21.63
2018-06-13T15:33:44.354Z,25.20
2018-06-13T15:36:13.099Z,26.23
2018-06-13T15:38:41.673Z,32.80
2018-06-13T15:41:10.555Z,27.93
2018-06-13T15:43:38.830Z,27.67
2018-06-13T15:46:07.581Z,27.67
2018-06-13T15:48:36.652Z,26.87
2018-06-13T15:51:05.180Z,32.77
2018-06-13T15:53:33.863Z,28.40
2018-06-13T15:56:02.363Z,25.80
2018-06-13T15:58:31.029Z,22.20
2018-06-13T16:00:59.611Z,20.30
2018-06-13T16:03:28.218Z,21.50
2018-06-13T16:05:57.333Z,18.73
2018-06-13T16:08:26.150Z,20.00
2018-06-13T16:10:55.022Z,18.60
2018-06-13T16:13:23.633Z,18.67
2018-06-13T16:15:52.127Z,19.77
2018-06-13T16:18:20.369Z,19.10
2018-06-13T16:20:49.140Z,17.33
2018-06-13T16:23:17.690Z,18.30
2018-06-13T16:25:45.904Z,16.10
2018-06-13T16:28:14.695Z,18.00
2018-06-13T16:30:43.216Z,15.47
2018-06-13T16:33:11.938Z,17.03
2018-06-13T16:35:41.281Z,18.07
2018-06-13T16:38:09.926Z,20.23
2018-06-13T16:40:38.586Z,20.40
2018-06-13T16:43:07.213Z,23.20
2018-06-13T16:45:35.883Z,22.70
2018-06-13T16:48:04.590Z,19.40
2018-06-13T16:50:44.484Z,21.83
2018-06-13T16:54:20.805Z,23.13
2018-06-13T16:56:49.503Z,21.23
2018-06-13T16:59:18.136Z,22.10
2018-06-13T17:01:46.870Z,21.17
2018-06-13T17:04:15.594Z,22.23
2018-06-13T17:06:44.330Z,22.20
2018-06-13T17:09:12.725Z,20.60
2018-06-13T17:11:42.179Z,22.33
2018-06-13T17:14:11.047Z,21.47
2018-06-13T17:16:39.731Z,22.50
2018-06-13T17:19:08.431Z,18.50
2018-06-13T17:21:37.207Z,19.40
2018-06-13T17:24:06.248Z,19.60
2018-06-13T17:26:35.006Z,20.27
2018-06-13T17:29:03.613Z,22.80
2018-06-13T17:31:32.179Z,19.27
2018-06-13T17:34:00.733Z,20.63
2018-06-13T17:36:29.396Z,20.70
2018-06-13T17:38:58.150Z,21.07
2018-06-13T17:41:27.289Z,19.20
2018-06-13T17:43:56.146Z,18.87
2018-06-13T17:46:24.961Z,20.57
2018-06-13T17:48:54.036Z,19.87
2018-06-13T17:51:23.778Z,20.87
2018-06-13T17:53:53.462Z,18.73
2018-06-13T17:56:22.342Z,20.43
2018-06-13T17:58:51.256Z,20.47
2018-06-13T18:01:20.097Z,19.07
2018-06-13T18:03:49.164Z,18.33
2018-06-13T18:06:18.833Z,16.50
2018-06-13T18:08:47.879Z,19.70
2018-06-13T18:11:18.639Z,18.73
2018-06-13T18:13:47.212Z,17.30
2018-06-13T18:16:16.009Z,15.43
2018-06-13T18:18:44.879Z,17.50
2018-06-13T18:21:14.470Z,16.07
2018-06-13T18:23:43.276Z,18.13
2018-06-13T18:26:13.180Z,18.30
2018-06-13T18:28:42.224Z,17.87
2018-06-13T18:31:12.692Z,18.70
2018-06-13T18:33:42.158Z,18.70
2018-06-13T18:36:11.450Z,18.03
2018-06-13T18:38:40.606Z,18.23
2018-06-13T18:41:09.635Z,19.97
2018-06-13T18:43:39.510Z,18.83
2018-06-13T18:46:08.136Z,19.30
2018-06-13T18:48:38.440Z,18.83
2018-06-13T18:51:07.819Z,19.20
2018-06-13T18:53:37.423Z,18.70
2018-06-13T18:56:07.527Z,19.50
2018-06-13T18:58:36.740Z,19.70
2018-06-13T19:01:05.982Z,20.37
2018-06-13T19:03:34.746Z,21.33
2018-06-13T19:06:03.813Z,19.80
2018-06-13T19:08:32.881Z,20.40
2018-06-13T19:11:02.419Z,19.37
2018-06-13T19:13:31.647Z,18.77
2018-06-13T19:16:00.954Z,18.20
2018-06-13T19:18:30.385Z,18.80
2018-06-13T19:21:01.276Z,18.50
2018-06-13T19:23:31.398Z,19.20
2018-06-13T19:26:01.386Z,18.77
2018-06-13T19:28:31.187Z,18.10
2018-06-13T19:31:01.564Z,16.80
2018-06-13T19:33:31.869Z,17.33
2018-06-13T19:36:01.298Z,18.17
2018-06-13T19:38:30.760Z,18.00
2018-06-13T19:41:00.727Z,19.80
2018-06-13T19:43:35.363Z,18.00
2018-06-13T19:46:04.966Z,17.63
2018-06-13T19:48:39.116Z,16.87
2018-06-13T19:51:08.266Z,19.20
2018-06-13T19:53:42.945Z,19.27
2018-06-13T19:56:13.318Z,17.50
2018-06-13T19:58:42.735Z,18.00
2018-06-13T20:01:12.237Z,17.33
2018-06-13T20:03:46.459Z,17.93
2018-06-13T20:06:15.113Z,17.23
2018-06-13T20:08:44.115Z,17.93
2018-06-13T20:11:12.912Z,16.77
2018-06-13T20:13:47.930Z,18.83
2018-06-13T20:16:31.761Z,18.57
2018-06-13T20:19:06.133Z,18.13
2018-06-13T20:21:35.251Z,18.00
2018-06-13T20:24:04.185Z,18.17
2018-06-13T20:26:39.155Z,17.17
2018-06-13T20:29:13.316Z,18.87
2018-06-13T20:31:44.408Z,16.90
2018-06-13T20:34:13.240Z,19.03
2018-06-13T20:36:42.016Z,15.50
2018-06-13T20:39:11.987Z,16.13
2018-06-13T20:41:41.364Z,18.50
2018-06-13T20:44:11.519Z,18.80
2018-06-13T20:46:40.947Z,19.17
2018-06-13T20:49:09.799Z,16.93
2018-06-13T20:51:38.542Z,16.80
2018-06-13T20:54:08.049Z,17.77
2018-06-13T20:56:36.637Z,17.20
2018-06-13T20:59:05.621Z,18.57
2018-06-13T21:01:34.078Z,17.17
2018-06-13T21:04:02.618Z,14.73
2018-06-13T21:06:31.396Z,16.37
2018-06-13T21:08:59.957Z,18.40
2018-06-13T21:11:29.386Z,16.03
2018-06-13T21:13:57.931Z,16.00
2018-06-13T21:16:26.983Z,16.17
2018-06-13T21:18:55.462Z,14.60
2018-06-13T21:21:24.050Z,18.37
2018-06-13T21:23:52.576Z,17.60
2018-06-13T21:26:21.185Z,16.83
2018-06-13T21:28:49.809Z,16.13
2018-06-13T21:31:18.420Z,17.03
2018-06-13T21:33:46.993Z,15.77
2018-06-13T21:36:15.420Z,16.10
2018-06-13T21:38:44.023Z,16.77
2018-06-13T21:41:12.539Z,16.53
2018-06-13T21:43:42.046Z,16.60
2018-06-13T21:46:10.504Z,16.67
2018-06-13T21:48:39.024Z,18.20
2018-06-13T21:51:07.597Z,17.83
2018-06-13T21:53:35.776Z,18.53
2018-06-13T21:56:04.278Z,17.03
2018-06-13T21:58:32.740Z,17.20
2018-06-13T22:01:01.354Z,18.07
2018-06-13T22:03:29.517Z,18.63
2018-06-13T22:05:57.648Z,18.20
2018-06-13T22:08:26.086Z,19.70
2018-06-13T22:10:58.011Z,18.90
2018-06-13T22:13:26.642Z,19.20
2018-06-13T22:15:55.201Z,19.57
2018-06-13T22:18:23.386Z,17.93
2018-06-13T22:20:51.899Z,17.30
2018-06-13T22:23:20.481Z,17.30
2018-06-13T22:25:49.077Z,16.70
2018-06-13T22:28:17.714Z,17.07
2018-06-13T22:30:46.152Z,18.80
2018-06-13T22:33:14.614Z,17.83
2018-06-13T22:35:43.039Z,18.67
2018-06-13T22:38:11.521Z,16.67
2018-06-13T22:40:40.058Z,19.17
2018-06-13T22:43:08.580Z,18.20
2018-06-13T22:45:37.079Z,16.50
2018-06-13T22:48:05.714Z,17.57
2018-06-13T22:50:33.895Z,17.17
2018-06-13T22:53:02.333Z,17.77
2018-06-13T22:55:30.799Z,18.43
2018-06-13T22:57:59.217Z,15.87
2018-06-13T23:00:33.472Z,17.33
2018-06-13T23:03:02.550Z,16.57
2018-06-13T23:05:31.019Z,16.47
2018-06-13T23:07:59.472Z,16.70
2018-06-13T23:10:28.127Z,16.73
2018-06-13T23:12:56.559Z,17.53
2018-06-13T23:15:25.233Z,17.40
2018-06-13T23:17:53.796Z,16.03
2018-06-13T23:20:22.265Z,17.50
2018-06-13T23:22:52.166Z,15.63
2018-06-13T23:25:20.567Z,16.53
2018-06-13T23:27:49.008Z,16.43
2018-06-13T23:30:17.512Z,18.67
2018-06-13T23:32:46.020Z,17.23
2018-06-13T23:35:14.448Z,16.30
2018-06-13T23:37:43.858Z,15.63
2018-06-13T23:40:12.452Z,16.17
2018-06-13T23:42:41.042Z,17.87
2018-06-13T23:45:09.513Z,16.70
2018-06-13T23:47:38.044Z,18.90
2018-06-13T23:50:06.563Z,17.47
2018-06-13T23:52:35.044Z,18.00
2018-06-13T23:55:03.669Z,18.57
2018-06-13T23:57:32.248Z,15.97
